Map

Track Data

SID SEASON NUMBER BASIN SUBBASIN NAME ISO_TIME NATURE LAT LON WMO_WIND WMO_PRES WMO_AGENCY TRACK_TYPE DIST2LAND LANDFALL IFLAG USA_AGENCY USA_ATCF_ID USA_LAT USA_LON USA_RECORD USA_STATUS USA_WIND USA_PRES USA_SSHS USA_R34_NE USA_R34_SE USA_R34_SW USA_R34_NW USA_R50_NE USA_R50_SE USA_R50_SW USA_R50_NW USA_R64_NE USA_R64_SE USA_R64_SW USA_R64_NW USA_POCI USA_ROCI USA_RMW USA_EYE TOKYO_LAT TOKYO_LON TOKYO_GRADE TOKYO_WIND TOKYO_PRES TOKYO_R50_DIR TOKYO_R50_LONG TOKYO_R50_SHORT TOKYO_R30_DIR TOKYO_R30_LONG TOKYO_R30_SHORT TOKYO_LAND CMA_LAT CMA_LON CMA_CAT CMA_WIND CMA_PRES HKO_LAT HKO_LON HKO_CAT HKO_WIND HKO_PRES NEWDELHI_LAT NEWDELHI_LON NEWDELHI_GRADE NEWDELHI_WIND NEWDELHI_PRES NEWDELHI_CI NEWDELHI_DP NEWDELHI_POCI REUNION_LAT REUNION_LON REUNION_TYPE REUNION_WIND REUNION_PRES REUNION_TNUM REUNION_CI REUNION_RMW REUNION_R34_NE REUNION_R34_SE REUNION_R34_SW REUNION_R34_NW REUNION_R50_NE REUNION_R50_SE REUNION_R50_SW REUNION_R50_NW REUNION_R64_NE REUNION_R64_SE REUNION_R64_SW REUNION_R64_NW BOM_LAT BOM_LON BOM_TYPE BOM_WIND BOM_PRES BOM_TNUM BOM_CI BOM_RMW BOM_R34_NE BOM_R34_SE BOM_R34_SW BOM_R34_NW BOM_R50_NE BOM_R50_SE BOM_R50_SW BOM_R50_NW BOM_R64_NE BOM_R64_SE BOM_R64_SW BOM_R64_NW BOM_ROCI BOM_POCI BOM_EYE BOM_POS_METHOD BOM_PRES_METHOD NADI_LAT NADI_LON NADI_CAT NADI_WIND NADI_PRES WELLINGTON_LAT WELLINGTON_LON WELLINGTON_WIND WELLINGTON_PRES DS824_LAT DS824_LON DS824_STAGE DS824_WIND DS824_PRES TD9636_LAT TD9636_LON TD9636_STAGE TD9636_WIND TD9636_PRES TD9635_LAT TD9635_LON TD9635_WIND TD9635_PRES TD9635_ROCI NEUMANN_LAT NEUMANN_LON NEUMANN_CLASS NEUMANN_WIND NEUMANN_PRES MLC_LAT MLC_LON MLC_CLASS MLC_WIND MLC_PRES USA_GUST BOM_GUST BOM_GUST_PER REUNION_GUST REUNION_GUST_PER USA_SEAHGT USA_SEARAD_NE USA_SEARAD_SE USA_SEARAD_SW USA_SEARAD_NW STORM_SPEED STORM_DIR
1880254N19267 1880 19 NA GM NOT_NAMED 1880-09-09 12:00:00 TS 19.2000 -92.7000 main 67 67 _____________O -1 19.2000 -92.7000 TD 25 1 257
1880254N19267 1880 19 NA GM NOT_NAMED 1880-09-09 15:00:00 TS 19.1875 -92.7525 main 67 67 _____________P -1 19.1875 -92.7525 TD 27 1 270
1880254N19267 1880 19 NA GM NOT_NAMED 1880-09-09 18:00:00 TS 19.2000 -92.8000 main 67 67 _____________O -1 19.2000 -92.8000 TD 30 1 307
1880254N19267 1880 19 NA GM NOT_NAMED 1880-09-09 21:00:00 TS 19.2500 -92.8425 main 67 67 _____________P -1 19.2500 -92.8425 TD 30 1 317
1880254N19267 1880 19 NA GM NOT_NAMED 1880-09-10 00:00:00 TS 19.3000 -92.9000 main 81 81 _____________O -1 19.3000 -92.9000 TD 30 2 291
1880254N19267 1880 19 NA GM NOT_NAMED 1880-09-10 03:00:00 TS 19.3075 -93.0000 main 84 84 _____________P -1 19.3075 -93.0000 TD 32 2 270
1880254N19267 1880 19 NA GM NOT_NAMED 1880-09-10 06:00:00 TS 19.3000 -93.1000 main 88 88 _____________O -1 19.3000 -93.1000 TS 35 1 261
1880254N19267 1880 19 NA GM NOT_NAMED 1880-09-10 09:00:00 TS 19.2850 -93.1425 main 88 88 _____________P -1 19.2850 -93.1425 TS 37 1 270
1880254N19267 1880 19 NA GM NOT_NAMED 1880-09-10 12:00:00 TS 19.3000 -93.2000 main 94 94 _____________O -1 19.3000 -93.2000 TS 40 2 301
1880254N19267 1880 19 NA GM NOT_NAMED 1880-09-10 15:00:00 TS 19.3925 -93.3350 main 109 109 _____________P -1 19.3925 -93.3350 TS 42 3 305
1880254N19267 1880 19 NA GM NOT_NAMED 1880-09-10 18:00:00 TS 19.5000 -93.5000 main 131 131 _____________O -1 19.5000 -93.5000 TS 45 3 299
1880254N19267 1880 19 NA GM NOT_NAMED 1880-09-10 21:00:00 TS 19.5575 -93.6500 main 145 145 _____________P -1 19.5575 -93.6500 TS 47 3 290
1880254N19267 1880 19 NA GM NOT_NAMED 1880-09-11 00:00:00 TS 19.6000 -93.8000 main 145 145 _____________O -1 19.6000 -93.8000 TS 50 3 288
1880254N19267 1880 19 NA GM NOT_NAMED 1880-09-11 03:00:00 TS 19.6500 -93.9575 main 156 155 _____________P -1 19.6500 -93.9575 TS 52 3 290
1880254N19267 1880 19 NA GM NOT_NAMED 1880-09-11 06:00:00 TS 19.7000 -94.1000 main 155 149 _____________O -1 19.7000 -94.1000 TS 55 2 294
1880254N19267 1880 19 NA GM NOT_NAMED 1880-09-11 09:00:00 TS 19.7424 -94.1851 main 149 149 _____________P -1 19.7424 -94.1851 TS 55 2 298
1880254N19267 1880 19 NA GM NOT_NAMED 1880-09-11 12:00:00 TS 19.8000 -94.3000 main 153 148 _____________O -1 19.8000 -94.3000 TS 55 4 296
1880254N19267 1880 19 NA GM NOT_NAMED 1880-09-11 15:00:00 TS 19.9000 -94.5274 main 153 148 _____________P -1 19.9000 -94.5274 TS 55 5 293
1880254N19267 1880 19 NA GM NOT_NAMED 1880-09-11 18:00:00 TS 20.0000 -94.8000 main 151 145 _____________O -1 20.0000 -94.8000 TS 55 5 287
1880254N19267 1880 19 NA GM NOT_NAMED 1880-09-11 21:00:00 TS 20.0500 -95.0501 main 136 117 _____________P -1 20.0500 -95.0501 TS 55 5 282
1880254N19267 1880 19 NA GM NOT_NAMED 1880-09-12 00:00:00 TS 20.1000 -95.3000 main 117 99 _____________O -1 20.1000 -95.3000 TS 55 5 288
1880254N19267 1880 19 NA GM NOT_NAMED 1880-09-12 03:00:00 TS 20.2000 -95.5500 main 99 76 _____________P -1 20.2000 -95.5500 TS 55 5 293
1880254N19267 1880 19 NA GM NOT_NAMED 1880-09-12 06:00:00 TS 20.3000 -95.8000 main 76 61 _____________O -1 20.3000 -95.8000 TS 55 5 287
1880254N19267 1880 19 NA GM NOT_NAMED 1880-09-12 09:00:00 TS 20.3424 -96.0426 main 61 45 _____________P -1 20.3424 -96.0426 TS 55 5 282
1880254N19267 1880 19 NA GM NOT_NAMED 1880-09-12 12:00:00 TS 20.4000 -96.3000 main 45 30 _____________O -1 20.4000 -96.3000 TS 55 6 290
1880254N19267 1880 19 NA GM NOT_NAMED 1880-09-12 15:00:00 TS 20.5350 -96.5925 main 30 23 _____________P -1 20.5350 -96.5925 TS 52 6 298
1880254N19267 1880 19 NA GM NOT_NAMED 1880-09-12 18:00:00 TS 20.7000 -96.9000 main 23 10 _____________O -1 20.7000 -96.9000 TS 50 7 299
1880254N19267 1880 19 NA GM NOT_NAMED 1880-09-12 21:00:00 TS 20.8551 -97.2024 main 10 0 _____________P -1 20.8551 -97.2024 TS 40 6 298
1880254N19267 1880 19 NA NA NOT_NAMED 1880-09-13 00:00:00 TS 21.0000 -97.5000 main 0 _____________O -1 21.0000 -97.5000 TD 30 6 298

About IBTrACS Database

This database is a web-friendly format of International Best Track Archive for Climate Stewardship (IBTrACS), a global best track data archive curated by NOAA dating back to 1842.

Updated: 2021-12-06